sensor_id;sensor_type;location;lat;lon;timestamp;temperature;humidity
20171;DHT22;10245;51.344;6.620;2023-04-25T00:02:18;6.70;83.10
20171;DHT22;10245;51.344;6.620;2023-04-25T00:04:43;6.80;83.00
20171;DHT22;10245;51.344;6.620;2023-04-25T00:07:30;6.80;83.20
20171;DHT22;10245;51.344;6.620;2023-04-25T00:09:54;6.80;82.90
20171;DHT22;10245;51.344;6.620;2023-04-25T00:12:18;6.80;83.30
20171;DHT22;10245;51.344;6.620;2023-04-25T00:14:43;6.80;83.20
20171;DHT22;10245;51.344;6.620;2023-04-25T00:17:07;6.90;83.40
20171;DHT22;10245;51.344;6.620;2023-04-25T00:19:30;6.90;83.20
20171;DHT22;10245;51.344;6.620;2023-04-25T00:21:55;6.80;83.30
20171;DHT22;10245;51.344;6.620;2023-04-25T00:24:19;6.90;83.80
20171;DHT22;10245;51.344;6.620;2023-04-25T00:26:43;6.90;83.20
20171;DHT22;10245;51.344;6.620;2023-04-25T00:29:06;6.90;83.30
20171;DHT22;10245;51.344;6.620;2023-04-25T00:31:30;6.90;83.60
20171;DHT22;10245;51.344;6.620;2023-04-25T00:33:55;6.90;83.70
20171;DHT22;10245;51.344;6.620;2023-04-25T00:36:18;6.90;83.40
20171;DHT22;10245;51.344;6.620;2023-04-25T00:38:43;6.90;83.50
20171;DHT22;10245;51.344;6.620;2023-04-25T00:41:08;6.90;83.60
20171;DHT22;10245;51.344;6.620;2023-04-25T00:43:32;6.90;83.60
20171;DHT22;10245;51.344;6.620;2023-04-25T00:45:57;6.90;83.60
20171;DHT22;10245;51.344;6.620;2023-04-25T00:48:21;6.90;83.70
20171;DHT22;10245;51.344;6.620;2023-04-25T00:50:51;6.90;83.70
20171;DHT22;10245;51.344;6.620;2023-04-25T00:53:15;6.90;83.60
20171;DHT22;10245;51.344;6.620;2023-04-25T00:55:41;6.90;83.80
20171;DHT22;10245;51.344;6.620;2023-04-25T00:58:09;7.00;84.10
20171;DHT22;10245;51.344;6.620;2023-04-25T01:00:32;6.90;83.70
20171;DHT22;10245;51.344;6.620;2023-04-25T01:02:56;6.90;83.70
20171;DHT22;10245;51.344;6.620;2023-04-25T01:05:20;7.00;84.00
20171;DHT22;10245;51.344;6.620;2023-04-25T01:07:44;6.90;83.50
20171;DHT22;10245;51.344;6.620;2023-04-25T01:10:09;7.00;83.90
20171;DHT22;10245;51.344;6.620;2023-04-25T01:12:34;7.00;83.70
20171;DHT22;10245;51.344;6.620;2023-04-25T01:14:57;6.90;83.70
20171;DHT22;10245;51.344;6.620;2023-04-25T01:17:21;6.90;84.10
20171;DHT22;10245;51.344;6.620;2023-04-25T01:19:44;6.80;84.10
20171;DHT22;10245;51.344;6.620;2023-04-25T01:22:11;6.80;84.30
20171;DHT22;10245;51.344;6.620;2023-04-25T01:24:37;6.80;84.20
20171;DHT22;10245;51.344;6.620;2023-04-25T01:27:00;6.80;84.50
20171;DHT22;10245;51.344;6.620;2023-04-25T01:29:25;6.90;84.60
20171;DHT22;10245;51.344;6.620;2023-04-25T01:31:50;6.90;84.40
20171;DHT22;10245;51.344;6.620;2023-04-25T01:34:14;6.90;84.50
20171;DHT22;10245;51.344;6.620;2023-04-25T01:36:38;6.90;84.80
20171;DHT22;10245;51.344;6.620;2023-04-25T01:39:04;6.90;84.60
20171;DHT22;10245;51.344;6.620;2023-04-25T01:41:28;6.90;84.30
20171;DHT22;10245;51.344;6.620;2023-04-25T01:43:51;6.80;84.60
20171;DHT22;10245;51.344;6.620;2023-04-25T01:46:16;6.80;84.70
20171;DHT22;10245;51.344;6.620;2023-04-25T01:48:39;6.90;85.30
20171;DHT22;10245;51.344;6.620;2023-04-25T01:51:03;6.90;84.90
20171;DHT22;10245;51.344;6.620;2023-04-25T01:53:26;6.80;84.90
20171;DHT22;10245;51.344;6.620;2023-04-25T01:55:52;6.90;84.90
20171;DHT22;10245;51.344;6.620;2023-04-25T01:58:17;6.90;85.10
20171;DHT22;10245;51.344;6.620;2023-04-25T02:00:58;6.80;84.40
20171;DHT22;10245;51.344;6.620;2023-04-25T02:03:29;6.90;84.60
20171;DHT22;10245;51.344;6.620;2023-04-25T02:05:54;6.80;84.50
20171;DHT22;10245;51.344;6.620;2023-04-25T02:08:18;6.80;84.50
20171;DHT22;10245;51.344;6.620;2023-04-25T02:10:42;6.80;84.80
20171;DHT22;10245;51.344;6.620;2023-04-25T02:13:13;6.80;84.50
20171;DHT22;10245;51.344;6.620;2023-04-25T02:15:50;6.80;84.50
20171;DHT22;10245;51.344;6.620;2023-04-25T02:18:14;6.80;84.80
20171;DHT22;10245;51.344;6.620;2023-04-25T02:20:38;6.80;84.60
20171;DHT22;10245;51.344;6.620;2023-04-25T02:23:02;6.80;84.90
20171;DHT22;10245;51.344;6.620;2023-04-25T02:25:26;6.80;84.70
20171;DHT22;10245;51.344;6.620;2023-04-25T02:27:49;6.80;85.10
20171;DHT22;10245;51.344;6.620;2023-04-25T02:30:15;6.80;84.90
20171;DHT22;10245;51.344;6.620;2023-04-25T02:32:38;6.70;85.20
20171;DHT22;10245;51.344;6.620;2023-04-25T02:35:04;6.70;85.30
20171;DHT22;10245;51.344;6.620;2023-04-25T02:37:28;6.70;85.20
20171;DHT22;10245;51.344;6.620;2023-04-25T02:39:51;6.70;85.30
20171;DHT22;10245;51.344;6.620;2023-04-25T02:42:14;6.70;85.60
20171;DHT22;10245;51.344;6.620;2023-04-25T02:44:37;6.70;85.50
20171;DHT22;10245;51.344;6.620;2023-04-25T02:47:02;6.60;85.70
20171;DHT22;10245;51.344;6.620;2023-04-25T02:49:26;6.60;85.80
20171;DHT22;10245;51.344;6.620;2023-04-25T02:51:49;6.50;86.00
20171;DHT22;10245;51.344;6.620;2023-04-25T02:54:12;6.50;86.10
20171;DHT22;10245;51.344;6.620;2023-04-25T02:56:38;6.50;86.50
20171;DHT22;10245;51.344;6.620;2023-04-25T02:59:07;6.40;86.50
20171;DHT22;10245;51.344;6.620;2023-04-25T03:01:30;6.40;86.50
20171;DHT22;10245;51.344;6.620;2023-04-25T03:03:55;6.50;86.70
20171;DHT22;10245;51.344;6.620;2023-04-25T03:06:19;6.40;86.80
20171;DHT22;10245;51.344;6.620;2023-04-25T03:08:42;6.40;86.90
20171;DHT22;10245;51.344;6.620;2023-04-25T03:11:05;6.40;86.90
20171;DHT22;10245;51.344;6.620;2023-04-25T03:13:29;6.50;86.70
20171;DHT22;10245;51.344;6.620;2023-04-25T03:15:53;6.50;86.70
20171;DHT22;10245;51.344;6.620;2023-04-25T03:18:17;6.50;86.80
20171;DHT22;10245;51.344;6.620;2023-04-25T03:20:41;6.50;86.90
20171;DHT22;10245;51.344;6.620;2023-04-25T03:23:05;6.30;87.20
20171;DHT22;10245;51.344;6.620;2023-04-25T03:25:29;6.40;87.20
20171;DHT22;10245;51.344;6.620;2023-04-25T03:27:52;6.40;87.10
20171;DHT22;10245;51.344;6.620;2023-04-25T03:30:16;6.40;87.00
20171;DHT22;10245;51.344;6.620;2023-04-25T03:32:40;6.20;87.40
20171;DHT22;10245;51.344;6.620;2023-04-25T03:35:04;6.20;87.50
20171;DHT22;10245;51.344;6.620;2023-04-25T03:37:29;6.10;87.70
20171;DHT22;10245;51.344;6.620;2023-04-25T03:39:52;6.20;87.70
20171;DHT22;10245;51.344;6.620;2023-04-25T03:42:18;6.20;87.60
20171;DHT22;10245;51.344;6.620;2023-04-25T03:44:45;6.20;87.90
20171;DHT22;10245;51.344;6.620;2023-04-25T03:47:08;6.20;87.90
20171;DHT22;10245;51.344;6.620;2023-04-25T03:49:33;6.20;87.90
20171;DHT22;10245;51.344;6.620;2023-04-25T03:51:59;6.10;87.70
20171;DHT22;10245;51.344;6.620;2023-04-25T03:54:29;6.10;87.80
20171;DHT22;10245;51.344;6.620;2023-04-25T03:56:59;6.20;87.70
20171;DHT22;10245;51.344;6.620;2023-04-25T03:59:24;6.10;87.60
20171;DHT22;10245;51.344;6.620;2023-04-25T04:01:47;6.10;87.80
20171;DHT22;10245;51.344;6.620;2023-04-25T04:04:11;6.00;87.90
20171;DHT22;10245;51.344;6.620;2023-04-25T04:06:35;6.00;87.90
20171;DHT22;10245;51.344;6.620;2023-04-25T04:09:10;6.10;87.80
20171;DHT22;10245;51.344;6.620;2023-04-25T04:11:38;6.10;87.70
20171;DHT22;10245;51.344;6.620;2023-04-25T04:14:02;6.00;88.10
20171;DHT22;10245;51.344;6.620;2023-04-25T04:16:25;6.00;88.10
20171;DHT22;10245;51.344;6.620;2023-04-25T04:18:49;6.00;88.40
20171;DHT22;10245;51.344;6.620;2023-04-25T04:21:12;6.00;88.20
20171;DHT22;10245;51.344;6.620;2023-04-25T04:23:36;5.90;87.90
20171;DHT22;10245;51.344;6.620;2023-04-25T04:26:02;5.90;88.10
20171;DHT22;10245;51.344;6.620;2023-04-25T04:28:32;5.90;88.10
20171;DHT22;10245;51.344;6.620;2023-04-25T04:31:09;5.80;88.20
20171;DHT22;10245;51.344;6.620;2023-04-25T04:33:32;5.80;88.20
20171;DHT22;10245;51.344;6.620;2023-04-25T04:35:58;5.80;88.20
20171;DHT22;10245;51.344;6.620;2023-04-25T04:38:22;5.80;88.40
20171;DHT22;10245;51.344;6.620;2023-04-25T04:40:50;5.80;88.30
20171;DHT22;10245;51.344;6.620;2023-04-25T04:43:23;5.70;88.20
20171;DHT22;10245;51.344;6.620;2023-04-25T04:46:06;5.70;88.30
20171;DHT22;10245;51.344;6.620;2023-04-25T04:49:07;5.70;88.50
20171;DHT22;10245;51.344;6.620;2023-04-25T04:52:06;5.60;88.70
20171;DHT22;10245;51.344;6.620;2023-04-25T04:54:48;5.60;88.70
20171;DHT22;10245;51.344;6.620;2023-04-25T04:57:29;5.50;88.70
20171;DHT22;10245;51.344;6.620;2023-04-25T05:00:07;5.50;88.70
20171;DHT22;10245;51.344;6.620;2023-04-25T05:02:40;5.50;88.90
20171;DHT22;10245;51.344;6.620;2023-04-25T05:05:23;5.50;88.70
20171;DHT22;10245;51.344;6.620;2023-04-25T05:08:06;5.50;88.70
20171;DHT22;10245;51.344;6.620;2023-04-25T05:10:40;5.50;88.50
20171;DHT22;10245;51.344;6.620;2023-04-25T05:13:14;5.50;88.60
20171;DHT22;10245;51.344;6.620;2023-04-25T05:15:53;5.60;88.40
20171;DHT22;10245;51.344;6.620;2023-04-25T05:18:29;5.60;88.40
20171;DHT22;10245;51.344;6.620;2023-04-25T05:21:04;5.60;88.50
20171;DHT22;10245;51.344;6.620;2023-04-25T05:23:57;5.70;88.10
20171;DHT22;10245;51.344;6.620;2023-04-25T05:26:40;5.80;87.80
20171;DHT22;10245;51.344;6.620;2023-04-25T05:29:22;5.80;87.80
20171;DHT22;10245;51.344;6.620;2023-04-25T05:32:08;5.80;87.50
20171;DHT22;10245;51.344;6.620;2023-04-25T05:34:34;6.00;86.90
20171;DHT22;10245;51.344;6.620;2023-04-25T05:37:00;6.10;86.70
20171;DHT22;10245;51.344;6.620;2023-04-25T05:39:25;6.20;85.50
20171;DHT22;10245;51.344;6.620;2023-04-25T05:42:07;6.20;86.10
20171;DHT22;10245;51.344;6.620;2023-04-25T05:44:39;6.20;85.20
20171;DHT22;10245;51.344;6.620;2023-04-25T05:47:21;6.20;85.30
20171;DHT22;10245;51.344;6.620;2023-04-25T05:49:56;6.20;84.80
20171;DHT22;10245;51.344;6.620;2023-04-25T05:52:35;6.20;85.00
20171;DHT22;10245;51.344;6.620;2023-04-25T05:55:06;6.40;85.40
20171;DHT22;10245;51.344;6.620;2023-04-25T05:57:30;6.30;84.50
20171;DHT22;10245;51.344;6.620;2023-04-25T05:59:54;6.30;84.10
20171;DHT22;10245;51.344;6.620;2023-04-25T06:02:34;6.40;83.80
20171;DHT22;10245;51.344;6.620;2023-04-25T06:04:59;6.60;84.70
20171;DHT22;10245;51.344;6.620;2023-04-25T06:07:25;6.60;84.80
20171;DHT22;10245;51.344;6.620;2023-04-25T06:09:49;6.60;83.90
20171;DHT22;10245;51.344;6.620;2023-04-25T06:12:12;6.50;83.10
20171;DHT22;10245;51.344;6.620;2023-04-25T06:14:36;6.50;83.00
20171;DHT22;10245;51.344;6.620;2023-04-25T06:17:00;6.60;82.60
20171;DHT22;10245;51.344;6.620;2023-04-25T06:19:28;6.70;82.90
20171;DHT22;10245;51.344;6.620;2023-04-25T06:21:53;6.80;83.40
20171;DHT22;10245;51.344;6.620;2023-04-25T06:24:16;6.90;83.70
20171;DHT22;10245;51.344;6.620;2023-04-25T06:26:40;6.80;83.20
20171;DHT22;10245;51.344;6.620;2023-04-25T06:29:04;6.90;82.50
20171;DHT22;10245;51.344;6.620;2023-04-25T06:31:27;6.90;82.40
20171;DHT22;10245;51.344;6.620;2023-04-25T06:33:54;6.80;82.00
20171;DHT22;10245;51.344;6.620;2023-04-25T06:36:20;6.80;82.10
20171;DHT22;10245;51.344;6.620;2023-04-25T06:38:50;7.00;82.20
20171;DHT22;10245;51.344;6.620;2023-04-25T06:41:14;6.90;82.00
20171;DHT22;10245;51.344;6.620;2023-04-25T06:43:37;6.90;82.50
20171;DHT22;10245;51.344;6.620;2023-04-25T06:46:24;7.10;82.20
20171;DHT22;10245;51.344;6.620;2023-04-25T06:48:48;7.30;80.90
20171;DHT22;10245;51.344;6.620;2023-04-25T06:51:13;7.30;80.20
20171;DHT22;10245;51.344;6.620;2023-04-25T06:53:38;7.50;81.00
20171;DHT22;10245;51.344;6.620;2023-04-25T06:56:07;7.50;80.80
20171;DHT22;10245;51.344;6.620;2023-04-25T06:58:46;7.70;80.60
20171;DHT22;10245;51.344;6.620;2023-04-25T07:01:22;8.00;78.90
20171;DHT22;10245;51.344;6.620;2023-04-25T07:03:46;8.00;78.30
20171;DHT22;10245;51.344;6.620;2023-04-25T07:06:12;8.30;78.10
20171;DHT22;10245;51.344;6.620;2023-04-25T07:08:36;8.70;80.40
20171;DHT22;10245;51.344;6.620;2023-04-25T07:10:59;8.50;74.90
20171;DHT22;10245;51.344;6.620;2023-04-25T07:13:24;8.30;77.10
20171;DHT22;10245;51.344;6.620;2023-04-25T07:15:47;8.00;75.80
20171;DHT22;10245;51.344;6.620;2023-04-25T07:18:13;7.70;77.70
20171;DHT22;10245;51.344;6.620;2023-04-25T07:20:37;7.80;77.80
20171;DHT22;10245;51.344;6.620;2023-04-25T07:23:01;7.80;77.10
20171;DHT22;10245;51.344;6.620;2023-04-25T07:25:25;7.90;75.20
20171;DHT22;10245;51.344;6.620;2023-04-25T07:27:49;8.00;74.90
20171;DHT22;10245;51.344;6.620;2023-04-25T07:30:16;7.90;74.30
20171;DHT22;10245;51.344;6.620;2023-04-25T07:32:40;8.00;75.80
20171;DHT22;10245;51.344;6.620;2023-04-25T07:35:04;8.00;75.10
20171;DHT22;10245;51.344;6.620;2023-04-25T07:37:28;8.20;75.50
20171;DHT22;10245;51.344;6.620;2023-04-25T07:39:57;8.30;74.70
20171;DHT22;10245;51.344;6.620;2023-04-25T07:42:20;8.30;76.10
20171;DHT22;10245;51.344;6.620;2023-04-25T07:44:44;8.60;74.50
20171;DHT22;10245;51.344;6.620;2023-04-25T07:47:10;8.90;74.50
20171;DHT22;10245;51.344;6.620;2023-04-25T07:49:33;8.80;73.00
20171;DHT22;10245;51.344;6.620;2023-04-25T07:51:57;9.40;71.90
20171;DHT22;10245;51.344;6.620;2023-04-25T07:54:21;9.10;70.60
20171;DHT22;10245;51.344;6.620;2023-04-25T07:56:51;9.70;74.80
20171;DHT22;10245;51.344;6.620;2023-04-25T07:59:20;9.50;72.40
20171;DHT22;10245;51.344;6.620;2023-04-25T08:01:44;9.30;72.10
20171;DHT22;10245;51.344;6.620;2023-04-25T08:04:09;10.00;71.70
20171;DHT22;10245;51.344;6.620;2023-04-25T08:06:44;10.30;70.60
20171;DHT22;10245;51.344;6.620;2023-04-25T08:09:13;9.90;69.40
20171;DHT22;10245;51.344;6.620;2023-04-25T08:11:37;10.30;69.80
20171;DHT22;10245;51.344;6.620;2023-04-25T08:14:02;10.60;70.60
20171;DHT22;10245;51.344;6.620;2023-04-25T08:16:27;10.70;69.80
20171;DHT22;10245;51.344;6.620;2023-04-25T08:18:51;9.90;67.30
20171;DHT22;10245;51.344;6.620;2023-04-25T08:21:16;10.00;70.70
20171;DHT22;10245;51.344;6.620;2023-04-25T08:23:39;9.80;66.80
20171;DHT22;10245;51.344;6.620;2023-04-25T08:26:06;9.20;68.10
20171;DHT22;10245;51.344;6.620;2023-04-25T08:28:32;9.50;69.80
20171;DHT22;10245;51.344;6.620;2023-04-25T08:30:56;9.50;66.60
20171;DHT22;10245;51.344;6.620;2023-04-25T08:33:23;10.80;69.90
20171;DHT22;10245;51.344;6.620;2023-04-25T08:36:13;10.00;62.70
20171;DHT22;10245;51.344;6.620;2023-04-25T08:38:53;9.90;69.80
20171;DHT22;10245;51.344;6.620;2023-04-25T08:41:17;9.60;64.60
20171;DHT22;10245;51.344;6.620;2023-04-25T08:43:42;9.30;66.20
20171;DHT22;10245;51.344;6.620;2023-04-25T08:46:08;9.10;66.60
20171;DHT22;10245;51.344;6.620;2023-04-25T08:48:40;9.00;65.10
20171;DHT22;10245;51.344;6.620;2023-04-25T08:51:07;8.70;66.30
20171;DHT22;10245;51.344;6.620;2023-04-25T08:53:37;8.60;67.30
20171;DHT22;10245;51.344;6.620;2023-04-25T08:56:06;9.10;68.40
20171;DHT22;10245;51.344;6.620;2023-04-25T08:58:32;9.60;62.60
20171;DHT22;10245;51.344;6.620;2023-04-25T09:00:55;9.90;65.40
20171;DHT22;10245;51.344;6.620;2023-04-25T09:03:21;10.50;63.40
20171;DHT22;10245;51.344;6.620;2023-04-25T09:05:45;10.00;63.20
20171;DHT22;10245;51.344;6.620;2023-04-25T09:08:10;10.50;67.60
20171;DHT22;10245;51.344;6.620;2023-04-25T09:10:34;10.80;65.60
20171;DHT22;10245;51.344;6.620;2023-04-25T09:13:07;11.20;65.60
20171;DHT22;10245;51.344;6.620;2023-04-25T09:15:56;11.50;64.50
20171;DHT22;10245;51.344;6.620;2023-04-25T09:18:49;11.50;61.50
20171;DHT22;10245;51.344;6.620;2023-04-25T09:21:13;11.40;62.00
20171;DHT22;10245;51.344;6.620;2023-04-25T09:23:41;10.30;61.60
20171;DHT22;10245;51.344;6.620;2023-04-25T09:26:07;10.20;62.00
20171;DHT22;10245;51.344;6.620;2023-04-25T09:28:32;10.20;62.60
20171;DHT22;10245;51.344;6.620;2023-04-25T09:30:57;10.20;60.30
20171;DHT22;10245;51.344;6.620;2023-04-25T09:33:30;10.40;62.40
20171;DHT22;10245;51.344;6.620;2023-04-25T09:36:02;10.30;59.50
20171;DHT22;10245;51.344;6.620;2023-04-25T09:38:41;11.00;64.90
20171;DHT22;10245;51.344;6.620;2023-04-25T09:41:22;10.60;61.50
20171;DHT22;10245;51.344;6.620;2023-04-25T09:43:50;10.80;61.60
20171;DHT22;10245;51.344;6.620;2023-04-25T09:46:13;10.90;60.70
20171;DHT22;10245;51.344;6.620;2023-04-25T09:48:48;10.90;63.00
20171;DHT22;10245;51.344;6.620;2023-04-25T09:51:19;10.40;63.50
20171;DHT22;10245;51.344;6.620;2023-04-25T09:53:44;10.20;59.30
20171;DHT22;10245;51.344;6.620;2023-04-25T09:56:36;10.50;62.00
20171;DHT22;10245;51.344;6.620;2023-04-25T09:59:03;10.00;57.40
20171;DHT22;10245;51.344;6.620;2023-04-25T10:01:27;10.10;59.00
20171;DHT22;10245;51.344;6.620;2023-04-25T10:04:03;9.70;58.10
20171;DHT22;10245;51.344;6.620;2023-04-25T10:06:49;9.90;59.40
20171;DHT22;10245;51.344;6.620;2023-04-25T10:09:14;10.00;58.70
20171;DHT22;10245;51.344;6.620;2023-04-25T10:11:39;9.80;59.60
20171;DHT22;10245;51.344;6.620;2023-04-25T10:14:05;10.00;58.70
20171;DHT22;10245;51.344;6.620;2023-04-25T10:16:28;9.90;58.60
20171;DHT22;10245;51.344;6.620;2023-04-25T10:18:52;10.00;62.30
20171;DHT22;10245;51.344;6.620;2023-04-25T10:21:16;10.10;60.40
20171;DHT22;10245;51.344;6.620;2023-04-25T10:23:40;10.50;56.80
20171;DHT22;10245;51.344;6.620;2023-04-25T10:26:04;10.40;59.10
20171;DHT22;10245;51.344;6.620;2023-04-25T10:28:29;10.10;55.70
20171;DHT22;10245;51.344;6.620;2023-04-25T10:31:00;9.60;54.30
20171;DHT22;10245;51.344;6.620;2023-04-25T10:33:35;9.80;56.90
20171;DHT22;10245;51.344;6.620;2023-04-25T10:36:08;9.70;60.00
20171;DHT22;10245;51.344;6.620;2023-04-25T10:38:33;9.90;59.70
20171;DHT22;10245;51.344;6.620;2023-04-25T10:41:06;10.20;63.00
20171;DHT22;10245;51.344;6.620;2023-04-25T10:43:36;10.10;58.30
20171;DHT22;10245;51.344;6.620;2023-04-25T10:46:01;9.80;59.30
20171;DHT22;10245;51.344;6.620;2023-04-25T10:48:25;10.10;60.80
20171;DHT22;10245;51.344;6.620;2023-04-25T10:50:49;10.10;58.90
20171;DHT22;10245;51.344;6.620;2023-04-25T10:53:14;10.80;60.80
20171;DHT22;10245;51.344;6.620;2023-04-25T10:55:49;11.00;54.50
20171;DHT22;10245;51.344;6.620;2023-04-25T10:58:13;10.90;57.70
20171;DHT22;10245;51.344;6.620;2023-04-25T11:00:36;10.60;55.60
20171;DHT22;10245;51.344;6.620;2023-04-25T11:03:24;10.60;56.00
20171;DHT22;10245;51.344;6.620;2023-04-25T11:05:48;11.10;55.50
20171;DHT22;10245;51.344;6.620;2023-04-25T11:08:37;11.20;52.90
20171;DHT22;10245;51.344;6.620;2023-04-25T11:11:11;11.60;56.20
20171;DHT22;10245;51.344;6.620;2023-04-25T11:13:34;10.90;53.20
20171;DHT22;10245;51.344;6.620;2023-04-25T11:15:58;11.10;55.30
20171;DHT22;10245;51.344;6.620;2023-04-25T11:18:35;11.00;57.30
20171;DHT22;10245;51.344;6.620;2023-04-25T11:21:00;11.50;59.10
20171;DHT22;10245;51.344;6.620;2023-04-25T11:23:23;11.80;55.20
20171;DHT22;10245;51.344;6.620;2023-04-25T11:25:46;12.10;57.20
20171;DHT22;10245;51.344;6.620;2023-04-25T11:28:10;11.40;54.10
20171;DHT22;10245;51.344;6.620;2023-04-25T11:30:33;11.90;56.40
20171;DHT22;10245;51.344;6.620;2023-04-25T11:32:56;12.50;55.00
20171;DHT22;10245;51.344;6.620;2023-04-25T11:35:22;12.50;53.20
20171;DHT22;10245;51.344;6.620;2023-04-25T11:37:47;12.20;51.60
20171;DHT22;10245;51.344;6.620;2023-04-25T11:40:12;12.50;55.50
20171;DHT22;10245;51.344;6.620;2023-04-25T11:42:36;12.10;59.90
20171;DHT22;10245;51.344;6.620;2023-04-25T11:45:00;11.90;55.70
20171;DHT22;10245;51.344;6.620;2023-04-25T11:47:28;10.60;56.60
20171;DHT22;10245;51.344;6.620;2023-04-25T11:49:53;10.80;55.70
20171;DHT22;10245;51.344;6.620;2023-04-25T11:52:17;10.40;56.20
20171;DHT22;10245;51.344;6.620;2023-04-25T11:54:41;10.80;59.90
20171;DHT22;10245;51.344;6.620;2023-04-25T11:57:04;10.80;62.70
20171;DHT22;10245;51.344;6.620;2023-04-25T11:59:28;10.50;66.90
20171;DHT22;10245;51.344;6.620;2023-04-25T12:01:51;9.80;67.00
20171;DHT22;10245;51.344;6.620;2023-04-25T12:04:16;9.50;68.20
20171;DHT22;10245;51.344;6.620;2023-04-25T12:06:42;9.90;65.80
20171;DHT22;10245;51.344;6.620;2023-04-25T12:09:11;10.10;67.10
20171;DHT22;10245;51.344;6.620;2023-04-25T12:11:40;10.60;66.80
20171;DHT22;10245;51.344;6.620;2023-04-25T12:14:04;10.80;64.00
20171;DHT22;10245;51.344;6.620;2023-04-25T12:16:28;11.50;65.70
20171;DHT22;10245;51.344;6.620;2023-04-25T12:18:52;11.50;63.20
20171;DHT22;10245;51.344;6.620;2023-04-25T12:21:15;11.40;61.60
20171;DHT22;10245;51.344;6.620;2023-04-25T12:23:39;11.80;62.80
20171;DHT22;10245;51.344;6.620;2023-04-25T12:26:04;12.00;67.80
20171;DHT22;10245;51.344;6.620;2023-04-25T12:28:32;11.90;61.20
20171;DHT22;10245;51.344;6.620;2023-04-25T12:30:57;12.40;61.80
20171;DHT22;10245;51.344;6.620;2023-04-25T12:33:23;12.70;62.10
20171;DHT22;10245;51.344;6.620;2023-04-25T12:35:46;12.60;60.50
20171;DHT22;10245;51.344;6.620;2023-04-25T12:38:09;12.00;62.90
20171;DHT22;10245;51.344;6.620;2023-04-25T12:40:33;10.80;59.90
20171;DHT22;10245;51.344;6.620;2023-04-25T12:42:57;10.80;60.30
20171;DHT22;10245;51.344;6.620;2023-04-25T12:45:21;10.20;62.30
20171;DHT22;10245;51.344;6.620;2023-04-25T12:47:44;10.10;62.10
20171;DHT22;10245;51.344;6.620;2023-04-25T12:50:09;10.00;61.20
20171;DHT22;10245;51.344;6.620;2023-04-25T12:52:33;10.20;60.40
20171;DHT22;10245;51.344;6.620;2023-04-25T12:54:56;10.10;64.20
20171;DHT22;10245;51.344;6.620;2023-04-25T12:57:19;10.10;62.20
20171;DHT22;10245;51.344;6.620;2023-04-25T12:59:44;10.10;61.90
20171;DHT22;10245;51.344;6.620;2023-04-25T13:02:07;10.10;61.40
20171;DHT22;10245;51.344;6.620;2023-04-25T13:04:31;10.30;63.30
20171;DHT22;10245;51.344;6.620;2023-04-25T13:06:54;10.50;62.30
20171;DHT22;10245;51.344;6.620;2023-04-25T13:09:17;10.70;62.80
20171;DHT22;10245;51.344;6.620;2023-04-25T13:11:42;10.50;57.60
20171;DHT22;10245;51.344;6.620;2023-04-25T13:14:05;10.30;56.90
20171;DHT22;10245;51.344;6.620;2023-04-25T13:16:30;10.50;59.60
20171;DHT22;10245;51.344;6.620;2023-04-25T13:18:53;10.80;57.10
20171;DHT22;10245;51.344;6.620;2023-04-25T13:21:18;10.80;54.10
20171;DHT22;10245;51.344;6.620;2023-04-25T13:23:41;10.90;56.60
20171;DHT22;10245;51.344;6.620;2023-04-25T13:26:06;10.90;54.30
20171;DHT22;10245;51.344;6.620;2023-04-25T13:28:29;10.80;52.10
20171;DHT22;10245;51.344;6.620;2023-04-25T13:30:52;11.10;53.20
20171;DHT22;10245;51.344;6.620;2023-04-25T13:33:18;11.10;53.60
20171;DHT22;10245;51.344;6.620;2023-04-25T13:35:42;11.00;53.00
20171;DHT22;10245;51.344;6.620;2023-04-25T13:38:08;10.80;54.60
20171;DHT22;10245;51.344;6.620;2023-04-25T13:40:31;10.40;56.10
20171;DHT22;10245;51.344;6.620;2023-04-25T13:42:55;10.50;57.30
20171;DHT22;10245;51.344;6.620;2023-04-25T13:45:19;10.40;57.40
20171;DHT22;10245;51.344;6.620;2023-04-25T13:47:42;10.70;58.80
20171;DHT22;10245;51.344;6.620;2023-04-25T13:50:08;10.90;61.30
20171;DHT22;10245;51.344;6.620;2023-04-25T13:52:32;10.50;57.30
20171;DHT22;10245;51.344;6.620;2023-04-25T13:54:56;10.60;58.50
20171;DHT22;10245;51.344;6.620;2023-04-25T13:57:19;10.50;58.00
20171;DHT22;10245;51.344;6.620;2023-04-25T13:59:43;10.40;57.70
20171;DHT22;10245;51.344;6.620;2023-04-25T14:02:06;10.50;58.10
20171;DHT22;10245;51.344;6.620;2023-04-25T14:04:30;10.50;56.20
20171;DHT22;10245;51.344;6.620;2023-04-25T14:06:55;11.00;59.20
20171;DHT22;10245;51.344;6.620;2023-04-25T14:09:19;11.00;57.10
20171;DHT22;10245;51.344;6.620;2023-04-25T14:11:47;11.30;57.30
20171;DHT22;10245;51.344;6.620;2023-04-25T14:14:10;11.50;53.50
20171;DHT22;10245;51.344;6.620;2023-04-25T14:16:34;11.70;53.80
20171;DHT22;10245;51.344;6.620;2023-04-25T14:18:57;11.90;54.10
20171;DHT22;10245;51.344;6.620;2023-04-25T14:21:22;12.60;57.00
20171;DHT22;10245;51.344;6.620;2023-04-25T14:23:46;13.00;50.00
20171;DHT22;10245;51.344;6.620;2023-04-25T14:26:10;12.90;52.50
20171;DHT22;10245;51.344;6.620;2023-04-25T14:28:34;11.70;51.70
20171;DHT22;10245;51.344;6.620;2023-04-25T14:30:57;11.30;50.70
20171;DHT22;10245;51.344;6.620;2023-04-25T14:33:22;11.30;53.20
20171;DHT22;10245;51.344;6.620;2023-04-25T14:35:45;11.00;51.30
20171;DHT22;10245;51.344;6.620;2023-04-25T14:38:09;11.00;52.40
20171;DHT22;10245;51.344;6.620;2023-04-25T14:40:33;10.80;52.10
20171;DHT22;10245;51.344;6.620;2023-04-25T14:42:57;10.50;52.90
20171;DHT22;10245;51.344;6.620;2023-04-25T14:45:20;10.70;54.90
20171;DHT22;10245;51.344;6.620;2023-04-25T14:47:43;10.80;53.40
20171;DHT22;10245;51.344;6.620;2023-04-25T14:50:08;10.80;52.90
20171;DHT22;10245;51.344;6.620;2023-04-25T14:52:32;10.70;51.90
20171;DHT22;10245;51.344;6.620;2023-04-25T14:54:55;10.60;53.70
20171;DHT22;10245;51.344;6.620;2023-04-25T14:57:20;10.50;52.70
20171;DHT22;10245;51.344;6.620;2023-04-25T14:59:43;10.50;54.60
20171;DHT22;10245;51.344;6.620;2023-04-25T15:02:07;10.50;57.00
20171;DHT22;10245;51.344;6.620;2023-04-25T15:04:30;10.60;57.30
20171;DHT22;10245;51.344;6.620;2023-04-25T15:06:54;10.70;59.50
20171;DHT22;10245;51.344;6.620;2023-04-25T15:09:17;10.80;58.10
20171;DHT22;10245;51.344;6.620;2023-04-25T15:11:41;11.10;58.50
20171;DHT22;10245;51.344;6.620;2023-04-25T15:14:06;10.90;58.80
20171;DHT22;10245;51.344;6.620;2023-04-25T15:16:29;11.50;58.20
20171;DHT22;10245;51.344;6.620;2023-04-25T15:18:53;12.20;57.30
20171;DHT22;10245;51.344;6.620;2023-04-25T15:21:16;12.50;52.30
20171;DHT22;10245;51.344;6.620;2023-04-25T15:23:40;12.40;57.00
20171;DHT22;10245;51.344;6.620;2023-04-25T15:26:03;12.90;52.60
20171;DHT22;10245;51.344;6.620;2023-04-25T15:28:27;13.50;50.90
20171;DHT22;10245;51.344;6.620;2023-04-25T15:30:52;13.00;51.50
20171;DHT22;10245;51.344;6.620;2023-04-25T15:33:15;13.40;50.00
20171;DHT22;10245;51.344;6.620;2023-04-25T15:35:38;12.40;47.30
20171;DHT22;10245;51.344;6.620;2023-04-25T15:38:02;12.00;48.50